sensor_id;sensor_type;location;lat;lon;timestamp;P1;durP1;ratioP1;P2;durP2;ratioP2
7997;SDS011;4044;49.814;7.828;2024-01-10T00:01:32;14.80;;;9.27;;
7997;SDS011;4044;49.814;7.828;2024-01-10T00:03:57;13.67;;;9.00;;
7997;SDS011;4044;49.814;7.828;2024-01-10T00:06:23;13.63;;;8.87;;
7997;SDS011;4044;49.814;7.828;2024-01-10T00:08:49;12.37;;;9.07;;
7997;SDS011;4044;49.814;7.828;2024-01-10T00:11:15;12.17;;;8.73;;
7997;SDS011;4044;49.814;7.828;2024-01-10T00:13:41;14.17;;;9.50;;
7997;SDS011;4044;49.814;7.828;2024-01-10T00:16:06;12.60;;;8.33;;
7997;SDS011;4044;49.814;7.828;2024-01-10T00:18:33;14.80;;;9.37;;
7997;SDS011;4044;49.814;7.828;2024-01-10T00:20:58;14.57;;;9.93;;
7997;SDS011;4044;49.814;7.828;2024-01-10T00:23:24;14.50;;;9.47;;
7997;SDS011;4044;49.814;7.828;2024-01-10T00:25:50;13.87;;;9.37;;
7997;SDS011;4044;49.814;7.828;2024-01-10T00:28:15;15.77;;;10.00;;
7997;SDS011;4044;49.814;7.828;2024-01-10T00:30:44;13.23;;;9.47;;
7997;SDS011;4044;49.814;7.828;2024-01-10T00:33:12;13.53;;;9.03;;
7997;SDS011;4044;49.814;7.828;2024-01-10T00:35:38;13.60;;;9.20;;
7997;SDS011;4044;49.814;7.828;2024-01-10T00:38:03;13.53;;;9.20;;
7997;SDS011;4044;49.814;7.828;2024-01-10T00:40:29;13.00;;;9.80;;
7997;SDS011;4044;49.814;7.828;2024-01-10T00:42:54;17.50;;;9.80;;
7997;SDS011;4044;49.814;7.828;2024-01-10T00:45:20;16.20;;;10.23;;
7997;SDS011;4044;49.814;7.828;2024-01-10T00:47:45;12.03;;;8.67;;
7997;SDS011;4044;49.814;7.828;2024-01-10T00:50:13;16.33;;;9.40;;
7997;SDS011;4044;49.814;7.828;2024-01-10T00:52:38;15.60;;;9.63;;
7997;SDS011;4044;49.814;7.828;2024-01-10T00:55:04;13.37;;;9.63;;
7997;SDS011;4044;49.814;7.828;2024-01-10T00:57:30;16.50;;;9.53;;
7997;SDS011;4044;49.814;7.828;2024-01-10T00:59:55;15.17;;;9.50;;
7997;SDS011;4044;49.814;7.828;2024-01-10T01:02:21;13.30;;;9.33;;
7997;SDS011;4044;49.814;7.828;2024-01-10T01:04:46;15.47;;;9.57;;
7997;SDS011;4044;49.814;7.828;2024-01-10T01:07:12;14.33;;;10.17;;
7997;SDS011;4044;49.814;7.828;2024-01-10T01:09:37;15.13;;;9.63;;
7997;SDS011;4044;49.814;7.828;2024-01-10T01:12:03;14.10;;;9.47;;
7997;SDS011;4044;49.814;7.828;2024-01-10T01:14:29;13.70;;;9.70;;
7997;SDS011;4044;49.814;7.828;2024-01-10T01:16:54;17.40;;;10.20;;
7997;SDS011;4044;49.814;7.828;2024-01-10T01:19:20;14.27;;;9.60;;
7997;SDS011;4044;49.814;7.828;2024-01-10T01:21:45;15.43;;;9.30;;
7997;SDS011;4044;49.814;7.828;2024-01-10T01:24:11;16.03;;;9.50;;
7997;SDS011;4044;49.814;7.828;2024-01-10T01:26:36;14.30;;;9.50;;
7997;SDS011;4044;49.814;7.828;2024-01-10T01:29:02;14.57;;;9.43;;
7997;SDS011;4044;49.814;7.828;2024-01-10T01:31:27;14.70;;;9.20;;
7997;SDS011;4044;49.814;7.828;2024-01-10T01:33:53;15.77;;;10.40;;
7997;SDS011;4044;49.814;7.828;2024-01-10T01:36:18;12.70;;;9.53;;
7997;SDS011;4044;49.814;7.828;2024-01-10T01:38:44;13.00;;;9.17;;
7997;SDS011;4044;49.814;7.828;2024-01-10T01:41:09;14.33;;;9.90;;
7997;SDS011;4044;49.814;7.828;2024-01-10T01:43:35;14.80;;;10.10;;
7997;SDS011;4044;49.814;7.828;2024-01-10T01:46:01;15.30;;;10.60;;
7997;SDS011;4044;49.814;7.828;2024-01-10T01:48:28;16.87;;;10.53;;
7997;SDS011;4044;49.814;7.828;2024-01-10T01:50:56;16.70;;;10.33;;
7997;SDS011;4044;49.814;7.828;2024-01-10T01:53:23;14.70;;;9.87;;
7997;SDS011;4044;49.814;7.828;2024-01-10T01:55:49;14.70;;;10.57;;
7997;SDS011;4044;49.814;7.828;2024-01-10T01:58:16;16.40;;;10.50;;
7997;SDS011;4044;49.814;7.828;2024-01-10T02:00:42;16.90;;;10.77;;
7997;SDS011;4044;49.814;7.828;2024-01-10T02:03:09;19.83;;;11.53;;
7997;SDS011;4044;49.814;7.828;2024-01-10T02:05:35;16.10;;;10.50;;
7997;SDS011;4044;49.814;7.828;2024-01-10T02:08:01;16.40;;;10.47;;
7997;SDS011;4044;49.814;7.828;2024-01-10T02:10:27;15.93;;;10.33;;
7997;SDS011;4044;49.814;7.828;2024-01-10T02:12:52;17.63;;;10.83;;
7997;SDS011;4044;49.814;7.828;2024-01-10T02:15:18;15.70;;;10.90;;
7997;SDS011;4044;49.814;7.828;2024-01-10T02:17:44;19.43;;;10.80;;
7997;SDS011;4044;49.814;7.828;2024-01-10T02:20:10;17.43;;;10.73;;
7997;SDS011;4044;49.814;7.828;2024-01-10T02:22:37;13.57;;;9.60;;
7997;SDS011;4044;49.814;7.828;2024-01-10T02:25:09;15.33;;;10.67;;
7997;SDS011;4044;49.814;7.828;2024-01-10T02:27:37;14.63;;;10.03;;
7997;SDS011;4044;49.814;7.828;2024-01-10T02:30:04;15.60;;;10.60;;
7997;SDS011;4044;49.814;7.828;2024-01-10T02:32:31;15.77;;;10.40;;
7997;SDS011;4044;49.814;7.828;2024-01-10T02:34:57;16.07;;;10.33;;
7997;SDS011;4044;49.814;7.828;2024-01-10T02:37:23;16.27;;;10.27;;
7997;SDS011;4044;49.814;7.828;2024-01-10T02:39:48;16.53;;;10.63;;
7997;SDS011;4044;49.814;7.828;2024-01-10T02:42:14;18.63;;;11.67;;
7997;SDS011;4044;49.814;7.828;2024-01-10T02:44:40;18.13;;;10.80;;
7997;SDS011;4044;49.814;7.828;2024-01-10T02:47:06;16.93;;;11.67;;
7997;SDS011;4044;49.814;7.828;2024-01-10T02:49:32;15.13;;;10.03;;
7997;SDS011;4044;49.814;7.828;2024-01-10T02:51:57;16.00;;;10.70;;
7997;SDS011;4044;49.814;7.828;2024-01-10T02:54:23;17.23;;;11.20;;
7997;SDS011;4044;49.814;7.828;2024-01-10T02:56:49;15.57;;;10.43;;
7997;SDS011;4044;49.814;7.828;2024-01-10T02:59:14;18.40;;;11.30;;
7997;SDS011;4044;49.814;7.828;2024-01-10T03:01:40;15.50;;;10.30;;
7997;SDS011;4044;49.814;7.828;2024-01-10T03:04:05;15.20;;;10.40;;
7997;SDS011;4044;49.814;7.828;2024-01-10T03:06:31;17.23;;;11.33;;
7997;SDS011;4044;49.814;7.828;2024-01-10T03:08:56;18.90;;;12.00;;
7997;SDS011;4044;49.814;7.828;2024-01-10T03:11:22;20.30;;;13.20;;
7997;SDS011;4044;49.814;7.828;2024-01-10T03:13:49;21.53;;;13.13;;
7997;SDS011;4044;49.814;7.828;2024-01-10T03:16:16;19.70;;;12.77;;
7997;SDS011;4044;49.814;7.828;2024-01-10T03:18:42;21.63;;;13.90;;
7997;SDS011;4044;49.814;7.828;2024-01-10T03:21:07;19.60;;;12.23;;
7997;SDS011;4044;49.814;7.828;2024-01-10T03:23:33;21.10;;;12.40;;
7997;SDS011;4044;49.814;7.828;2024-01-10T03:25:58;20.17;;;13.00;;
7997;SDS011;4044;49.814;7.828;2024-01-10T03:28:24;21.10;;;13.20;;
7997;SDS011;4044;49.814;7.828;2024-01-10T03:30:49;22.37;;;12.83;;
7997;SDS011;4044;49.814;7.828;2024-01-10T03:33:16;20.20;;;13.03;;
7997;SDS011;4044;49.814;7.828;2024-01-10T03:35:41;22.20;;;13.77;;
7997;SDS011;4044;49.814;7.828;2024-01-10T03:38:07;20.70;;;13.43;;
7997;SDS011;4044;49.814;7.828;2024-01-10T03:40:33;22.47;;;12.63;;
7997;SDS011;4044;49.814;7.828;2024-01-10T03:42:59;20.53;;;12.90;;
7997;SDS011;4044;49.814;7.828;2024-01-10T03:45:24;20.00;;;12.20;;
7997;SDS011;4044;49.814;7.828;2024-01-10T03:47:50;21.57;;;13.17;;
7997;SDS011;4044;49.814;7.828;2024-01-10T03:50:19;20.80;;;12.73;;
7997;SDS011;4044;49.814;7.828;2024-01-10T03:52:44;17.47;;;12.47;;
7997;SDS011;4044;49.814;7.828;2024-01-10T03:55:14;20.50;;;13.23;;
7997;SDS011;4044;49.814;7.828;2024-01-10T03:57:40;21.23;;;13.77;;
7997;SDS011;4044;49.814;7.828;2024-01-10T04:00:07;19.10;;;12.67;;
7997;SDS011;4044;49.814;7.828;2024-01-10T04:02:33;21.10;;;13.20;;
7997;SDS011;4044;49.814;7.828;2024-01-10T04:04:59;22.93;;;14.10;;
7997;SDS011;4044;49.814;7.828;2024-01-10T04:07:26;20.33;;;13.27;;
7997;SDS011;4044;49.814;7.828;2024-01-10T04:09:52;20.27;;;13.40;;
7997;SDS011;4044;49.814;7.828;2024-01-10T04:12:17;20.60;;;13.47;;
7997;SDS011;4044;49.814;7.828;2024-01-10T04:14:43;22.03;;;13.67;;
7997;SDS011;4044;49.814;7.828;2024-01-10T04:17:08;20.40;;;13.50;;
7997;SDS011;4044;49.814;7.828;2024-01-10T04:19:34;21.00;;;13.17;;
7997;SDS011;4044;49.814;7.828;2024-01-10T04:21:59;20.43;;;13.80;;
7997;SDS011;4044;49.814;7.828;2024-01-10T04:24:25;21.10;;;13.30;;
7997;SDS011;4044;49.814;7.828;2024-01-10T04:26:51;22.73;;;14.30;;
7997;SDS011;4044;49.814;7.828;2024-01-10T04:29:16;22.17;;;13.17;;
7997;SDS011;4044;49.814;7.828;2024-01-10T04:31:42;21.53;;;13.40;;
7997;SDS011;4044;49.814;7.828;2024-01-10T04:34:07;21.50;;;14.23;;
7997;SDS011;4044;49.814;7.828;2024-01-10T04:36:33;18.83;;;12.47;;
7997;SDS011;4044;49.814;7.828;2024-01-10T04:38:58;20.33;;;13.23;;
7997;SDS011;4044;49.814;7.828;2024-01-10T04:41:24;20.73;;;12.80;;
7997;SDS011;4044;49.814;7.828;2024-01-10T04:43:50;21.73;;;14.10;;
7997;SDS011;4044;49.814;7.828;2024-01-10T04:46:16;23.47;;;15.00;;
7997;SDS011;4044;49.814;7.828;2024-01-10T04:48:41;23.40;;;14.67;;
7997;SDS011;4044;49.814;7.828;2024-01-10T04:51:07;25.07;;;14.13;;
7997;SDS011;4044;49.814;7.828;2024-01-10T04:53:32;22.37;;;14.33;;
7997;SDS011;4044;49.814;7.828;2024-01-10T04:55:58;21.17;;;14.67;;
7997;SDS011;4044;49.814;7.828;2024-01-10T04:58:24;23.20;;;14.57;;
7997;SDS011;4044;49.814;7.828;2024-01-10T05:00:50;23.60;;;13.87;;
7997;SDS011;4044;49.814;7.828;2024-01-10T05:03:15;23.03;;;13.67;;
7997;SDS011;4044;49.814;7.828;2024-01-10T05:05:41;23.93;;;14.30;;
7997;SDS011;4044;49.814;7.828;2024-01-10T05:08:06;22.10;;;14.50;;
7997;SDS011;4044;49.814;7.828;2024-01-10T05:10:32;20.93;;;13.57;;
7997;SDS011;4044;49.814;7.828;2024-01-10T05:12:57;21.57;;;14.03;;
7997;SDS011;4044;49.814;7.828;2024-01-10T05:15:23;22.93;;;14.30;;
7997;SDS011;4044;49.814;7.828;2024-01-10T05:17:48;24.30;;;15.33;;
7997;SDS011;4044;49.814;7.828;2024-01-10T05:20:14;25.10;;;15.00;;
7997;SDS011;4044;49.814;7.828;2024-01-10T05:22:40;20.93;;;14.77;;
7997;SDS011;4044;49.814;7.828;2024-01-10T05:25:05;24.93;;;14.97;;
7997;SDS011;4044;49.814;7.828;2024-01-10T05:27:31;21.63;;;14.27;;
7997;SDS011;4044;49.814;7.828;2024-01-10T05:29:57;25.17;;;14.53;;
7997;SDS011;4044;49.814;7.828;2024-01-10T05:32:24;25.47;;;15.47;;
7997;SDS011;4044;49.814;7.828;2024-01-10T05:34:51;24.57;;;14.97;;
7997;SDS011;4044;49.814;7.828;2024-01-10T05:37:17;24.30;;;14.53;;
7997;SDS011;4044;49.814;7.828;2024-01-10T05:39:42;25.17;;;15.40;;
7997;SDS011;4044;49.814;7.828;2024-01-10T05:42:08;25.33;;;14.70;;
7997;SDS011;4044;49.814;7.828;2024-01-10T05:44:33;23.23;;;14.60;;
7997;SDS011;4044;49.814;7.828;2024-01-10T05:46:58;24.67;;;15.00;;
7997;SDS011;4044;49.814;7.828;2024-01-10T05:49:24;22.50;;;14.90;;
7997;SDS011;4044;49.814;7.828;2024-01-10T05:51:50;24.40;;;15.47;;
7997;SDS011;4044;49.814;7.828;2024-01-10T05:54:16;23.20;;;14.97;;
7997;SDS011;4044;49.814;7.828;2024-01-10T05:56:43;25.13;;;15.13;;
7997;SDS011;4044;49.814;7.828;2024-01-10T05:59:08;23.73;;;14.73;;
7997;SDS011;4044;49.814;7.828;2024-01-10T06:01:36;25.70;;;15.20;;
7997;SDS011;4044;49.814;7.828;2024-01-10T06:04:03;22.27;;;14.93;;
7997;SDS011;4044;49.814;7.828;2024-01-10T06:06:29;22.37;;;15.00;;
7997;SDS011;4044;49.814;7.828;2024-01-10T06:08:54;22.83;;;13.93;;
7997;SDS011;4044;49.814;7.828;2024-01-10T06:11:20;22.57;;;14.60;;
7997;SDS011;4044;49.814;7.828;2024-01-10T06:13:45;22.97;;;15.07;;
7997;SDS011;4044;49.814;7.828;2024-01-10T06:16:11;22.07;;;14.40;;
7997;SDS011;4044;49.814;7.828;2024-01-10T06:18:38;22.93;;;14.90;;
7997;SDS011;4044;49.814;7.828;2024-01-10T06:21:04;26.43;;;15.57;;
7997;SDS011;4044;49.814;7.828;2024-01-10T06:23:29;24.77;;;15.07;;
7997;SDS011;4044;49.814;7.828;2024-01-10T06:25:55;23.37;;;14.47;;
7997;SDS011;4044;49.814;7.828;2024-01-10T06:28:20;24.37;;;15.00;;
7997;SDS011;4044;49.814;7.828;2024-01-10T06:30:46;26.37;;;15.23;;
7997;SDS011;4044;49.814;7.828;2024-01-10T06:33:12;22.43;;;14.60;;
7997;SDS011;4044;49.814;7.828;2024-01-10T06:35:38;24.33;;;15.20;;
7997;SDS011;4044;49.814;7.828;2024-01-10T06:38:04;24.13;;;15.47;;
7997;SDS011;4044;49.814;7.828;2024-01-10T06:40:30;23.23;;;14.93;;
7997;SDS011;4044;49.814;7.828;2024-01-10T06:42:55;24.97;;;15.50;;
7997;SDS011;4044;49.814;7.828;2024-01-10T06:45:21;22.23;;;14.17;;
7997;SDS011;4044;49.814;7.828;2024-01-10T06:47:47;22.60;;;14.93;;
7997;SDS011;4044;49.814;7.828;2024-01-10T06:50:12;24.77;;;15.50;;
7997;SDS011;4044;49.814;7.828;2024-01-10T06:52:38;25.30;;;15.80;;
7997;SDS011;4044;49.814;7.828;2024-01-10T06:55:03;24.00;;;15.47;;
7997;SDS011;4044;49.814;7.828;2024-01-10T06:57:29;22.60;;;14.73;;
7997;SDS011;4044;49.814;7.828;2024-01-10T06:59:55;23.30;;;14.97;;
7997;SDS011;4044;49.814;7.828;2024-01-10T07:02:20;23.93;;;15.43;;
7997;SDS011;4044;49.814;7.828;2024-01-10T07:04:48;24.50;;;15.00;;
7997;SDS011;4044;49.814;7.828;2024-01-10T07:07:14;26.60;;;16.00;;
7997;SDS011;4044;49.814;7.828;2024-01-10T07:09:39;25.27;;;15.80;;
7997;SDS011;4044;49.814;7.828;2024-01-10T07:12:06;24.77;;;15.23;;
7997;SDS011;4044;49.814;7.828;2024-01-10T07:14:32;26.17;;;16.13;;
7997;SDS011;4044;49.814;7.828;2024-01-10T07:16:57;26.50;;;15.47;;
7997;SDS011;4044;49.814;7.828;2024-01-10T07:19:23;26.57;;;16.97;;
7997;SDS011;4044;49.814;7.828;2024-01-10T07:21:49;26.53;;;15.20;;
7997;SDS011;4044;49.814;7.828;2024-01-10T07:24:15;34.40;;;15.77;;
7997;SDS011;4044;49.814;7.828;2024-01-10T07:26:40;24.47;;;15.60;;
7997;SDS011;4044;49.814;7.828;2024-01-10T07:29:06;25.63;;;16.30;;
7997;SDS011;4044;49.814;7.828;2024-01-10T07:31:33;26.87;;;16.27;;
7997;SDS011;4044;49.814;7.828;2024-01-10T07:33:59;23.97;;;15.43;;
7997;SDS011;4044;49.814;7.828;2024-01-10T07:36:25;26.73;;;17.13;;
7997;SDS011;4044;49.814;7.828;2024-01-10T07:38:57;23.03;;;15.67;;
7997;SDS011;4044;49.814;7.828;2024-01-10T07:41:22;23.87;;;16.37;;
7997;SDS011;4044;49.814;7.828;2024-01-10T07:43:48;25.00;;;15.50;;
7997;SDS011;4044;49.814;7.828;2024-01-10T07:46:14;26.97;;;16.53;;
7997;SDS011;4044;49.814;7.828;2024-01-10T07:48:40;26.17;;;16.30;;
7997;SDS011;4044;49.814;7.828;2024-01-10T07:51:05;29.60;;;18.13;;
7997;SDS011;4044;49.814;7.828;2024-01-10T07:53:31;24.50;;;16.47;;
7997;SDS011;4044;49.814;7.828;2024-01-10T07:55:57;26.33;;;15.83;;
7997;SDS011;4044;49.814;7.828;2024-01-10T07:58:22;23.63;;;15.40;;
7997;SDS011;4044;49.814;7.828;2024-01-10T08:00:48;24.13;;;15.30;;
7997;SDS011;4044;49.814;7.828;2024-01-10T08:03:14;26.10;;;15.37;;
7997;SDS011;4044;49.814;7.828;2024-01-10T08:05:39;36.10;;;16.73;;
7997;SDS011;4044;49.814;7.828;2024-01-10T08:08:05;26.20;;;16.10;;
7997;SDS011;4044;49.814;7.828;2024-01-10T08:10:30;26.57;;;16.23;;
7997;SDS011;4044;49.814;7.828;2024-01-10T08:12:57;24.30;;;15.47;;
7997;SDS011;4044;49.814;7.828;2024-01-10T08:15:23;25.37;;;15.70;;
7997;SDS011;4044;49.814;7.828;2024-01-10T08:17:48;25.70;;;15.63;;
7997;SDS011;4044;49.814;7.828;2024-01-10T08:20:14;24.40;;;15.57;;
7997;SDS011;4044;49.814;7.828;2024-01-10T08:22:44;23.73;;;15.60;;
7997;SDS011;4044;49.814;7.828;2024-01-10T08:25:10;22.37;;;14.13;;
7997;SDS011;4044;49.814;7.828;2024-01-10T08:27:35;23.13;;;15.67;;
7997;SDS011;4044;49.814;7.828;2024-01-10T08:30:01;25.17;;;15.23;;
7997;SDS011;4044;49.814;7.828;2024-01-10T08:32:29;26.03;;;15.27;;
7997;SDS011;4044;49.814;7.828;2024-01-10T08:34:55;22.13;;;14.93;;
7997;SDS011;4044;49.814;7.828;2024-01-10T08:37:20;25.63;;;15.37;;
7997;SDS011;4044;49.814;7.828;2024-01-10T08:39:46;24.97;;;15.80;;
7997;SDS011;4044;49.814;7.828;2024-01-10T08:42:12;24.97;;;15.67;;
7997;SDS011;4044;49.814;7.828;2024-01-10T08:44:38;24.27;;;14.93;;
7997;SDS011;4044;49.814;7.828;2024-01-10T08:47:03;25.40;;;15.07;;
7997;SDS011;4044;49.814;7.828;2024-01-10T08:49:29;24.53;;;15.77;;
7997;SDS011;4044;49.814;7.828;2024-01-10T08:51:54;26.03;;;16.43;;
7997;SDS011;4044;49.814;7.828;2024-01-10T08:54:20;26.93;;;16.40;;
7997;SDS011;4044;49.814;7.828;2024-01-10T08:56:47;24.87;;;15.23;;
7997;SDS011;4044;49.814;7.828;2024-01-10T08:59:13;24.27;;;15.70;;
7997;SDS011;4044;49.814;7.828;2024-01-10T09:01:38;25.50;;;14.83;;
7997;SDS011;4044;49.814;7.828;2024-01-10T09:04:04;23.37;;;14.70;;
7997;SDS011;4044;49.814;7.828;2024-01-10T09:06:31;22.53;;;15.50;;
7997;SDS011;4044;49.814;7.828;2024-01-10T09:08:57;24.00;;;15.13;;
7997;SDS011;4044;49.814;7.828;2024-01-10T09:11:23;23.80;;;15.53;;
7997;SDS011;4044;49.814;7.828;2024-01-10T09:13:49;25.97;;;15.33;;
7997;SDS011;4044;49.814;7.828;2024-01-10T09:16:15;26.20;;;15.37;;
7997;SDS011;4044;49.814;7.828;2024-01-10T09:18:41;25.07;;;15.13;;
7997;SDS011;4044;49.814;7.828;2024-01-10T09:21:07;23.80;;;14.80;;
7997;SDS011;4044;49.814;7.828;2024-01-10T09:23:32;25.23;;;15.30;;
7997;SDS011;4044;49.814;7.828;2024-01-10T09:25:58;24.80;;;15.27;;
7997;SDS011;4044;49.814;7.828;2024-01-10T09:28:23;27.00;;;15.33;;
7997;SDS011;4044;49.814;7.828;2024-01-10T09:30:49;25.70;;;15.00;;
7997;SDS011;4044;49.814;7.828;2024-01-10T09:33:16;25.77;;;15.33;;
7997;SDS011;4044;49.814;7.828;2024-01-10T09:35:42;24.10;;;15.67;;
7997;SDS011;4044;49.814;7.828;2024-01-10T09:38:07;27.13;;;15.67;;
7997;SDS011;4044;49.814;7.828;2024-01-10T09:40:33;25.60;;;15.90;;
7997;SDS011;4044;49.814;7.828;2024-01-10T09:42:59;28.93;;;16.57;;
7997;SDS011;4044;49.814;7.828;2024-01-10T09:45:25;26.03;;;15.50;;
7997;SDS011;4044;49.814;7.828;2024-01-10T09:47:54;23.30;;;15.20;;
7997;SDS011;4044;49.814;7.828;2024-01-10T09:50:23;24.63;;;15.43;;
7997;SDS011;4044;49.814;7.828;2024-01-10T09:52:51;24.23;;;15.40;;
7997;SDS011;4044;49.814;7.828;2024-01-10T09:55:19;24.00;;;15.50;;
7997;SDS011;4044;49.814;7.828;2024-01-10T09:57:46;23.73;;;14.93;;
7997;SDS011;4044;49.814;7.828;2024-01-10T10:00:12;24.23;;;15.53;;
7997;SDS011;4044;49.814;7.828;2024-01-10T10:02:40;25.70;;;15.87;;
7997;SDS011;4044;49.814;7.828;2024-01-10T10:05:13;24.87;;;16.03;;
7997;SDS011;4044;49.814;7.828;2024-01-10T10:07:46;24.60;;;15.67;;
7997;SDS011;4044;49.814;7.828;2024-01-10T10:10:16;24.17;;;14.87;;
7997;SDS011;4044;49.814;7.828;2024-01-10T10:12:49;23.13;;;14.30;;
7997;SDS011;4044;49.814;7.828;2024-01-10T10:15:20;23.30;;;14.77;;
7997;SDS011;4044;49.814;7.828;2024-01-10T10:17:47;24.63;;;15.40;;
7997;SDS011;4044;49.814;7.828;2024-01-10T10:20:19;21.97;;;14.37;;
7997;SDS011;4044;49.814;7.828;2024-01-10T10:25:32;24.03;;;15.73;;
7997;SDS011;4044;49.814;7.828;2024-01-10T10:28:03;24.70;;;15.53;;
7997;SDS011;4044;49.814;7.828;2024-01-10T10:30:30;23.47;;;14.80;;
7997;SDS011;4044;49.814;7.828;2024-01-10T10:32:57;24.50;;;14.50;;
7997;SDS011;4044;49.814;7.828;2024-01-10T10:35:23;23.10;;;14.47;;
7997;SDS011;4044;49.814;7.828;2024-01-10T10:37:49;25.63;;;15.20;;
7997;SDS011;4044;49.814;7.828;2024-01-10T10:40:15;24.20;;;14.27;;
7997;SDS011;4044;49.814;7.828;2024-01-10T10:42:43;23.20;;;14.27;;
7997;SDS011;4044;49.814;7.828;2024-01-10T10:45:16;22.43;;;13.93;;
7997;SDS011;4044;49.814;7.828;2024-01-10T10:47:43;21.90;;;14.37;;
7997;SDS011;4044;49.814;7.828;2024-01-10T10:50:13;22.23;;;13.80;;
7997;SDS011;4044;49.814;7.828;2024-01-10T10:52:50;22.10;;;13.43;;
7997;SDS011;4044;49.814;7.828;2024-01-10T10:55:16;20.73;;;12.83;;
7997;SDS011;4044;49.814;7.828;2024-01-10T10:57:44;24.73;;;13.90;;
7997;SDS011;4044;49.814;7.828;2024-01-10T11:00:11;22.67;;;13.63;;
7997;SDS011;4044;49.814;7.828;2024-01-10T11:02:40;22.03;;;13.63;;
7997;SDS011;4044;49.814;7.828;2024-01-10T11:05:06;21.27;;;14.33;;
7997;SDS011;4044;49.814;7.828;2024-01-10T11:07:40;20.93;;;13.53;;
7997;SDS011;4044;49.814;7.828;2024-01-10T11:10:10;20.40;;;13.67;;
7997;SDS011;4044;49.814;7.828;2024-01-10T11:24:23;19.27;;;12.70;;
7997;SDS011;4044;49.814;7.828;2024-01-10T11:26:50;22.50;;;13.30;;
7997;SDS011;4044;49.814;7.828;2024-01-10T11:29:15;21.47;;;12.93;;
7997;SDS011;4044;49.814;7.828;2024-01-10T11:31:41;18.53;;;12.20;;
7997;SDS011;4044;49.814;7.828;2024-01-10T11:34:15;17.30;;;12.13;;
7997;SDS011;4044;49.814;7.828;2024-01-10T11:36:40;20.87;;;13.03;;
7997;SDS011;4044;49.814;7.828;2024-01-10T11:39:41;20.53;;;13.07;;
7997;SDS011;4044;49.814;7.828;2024-01-10T11:42:10;19.70;;;12.53;;
7997;SDS011;4044;49.814;7.828;2024-01-10T11:44:46;19.23;;;12.60;;
7997;SDS011;4044;49.814;7.828;2024-01-10T11:47:14;19.50;;;12.13;;
7997;SDS011;4044;49.814;7.828;2024-01-10T11:49:40;21.80;;;13.07;;
7997;SDS011;4044;49.814;7.828;2024-01-10T11:52:06;19.97;;;12.27;;
7997;SDS011;4044;49.814;7.828;2024-01-10T11:54:37;20.30;;;12.67;;
7997;SDS011;4044;49.814;7.828;2024-01-10T11:57:14;16.77;;;12.03;;
7997;SDS011;4044;49.814;7.828;2024-01-10T11:59:45;19.20;;;12.03;;
7997;SDS011;4044;49.814;7.828;2024-01-10T12:02:11;19.47;;;12.07;;
7997;SDS011;4044;49.814;7.828;2024-01-10T12:04:38;20.57;;;12.53;;
7997;SDS011;4044;49.814;7.828;2024-01-10T12:07:05;19.47;;;12.67;;
7997;SDS011;4044;49.814;7.828;2024-01-10T12:09:32;17.97;;;11.67;;
7997;SDS011;4044;49.814;7.828;2024-01-10T12:11:58;16.23;;;11.20;;
7997;SDS011;4044;49.814;7.828;2024-01-10T12:14:24;17.70;;;11.40;;
7997;SDS011;4044;49.814;7.828;2024-01-10T12:16:53;19.90;;;11.23;;
7997;SDS011;4044;49.814;7.828;2024-01-10T12:19:18;16.60;;;11.10;;
7997;SDS011;4044;49.814;7.828;2024-01-10T12:21:44;19.40;;;11.47;;
7997;SDS011;4044;49.814;7.828;2024-01-10T12:24:09;15.97;;;10.90;;
7997;SDS011;4044;49.814;7.828;2024-01-10T12:26:35;16.97;;;11.23;;
7997;SDS011;4044;49.814;7.828;2024-01-10T12:29:01;17.23;;;11.80;;
7997;SDS011;4044;49.814;7.828;2024-01-10T12:31:29;18.87;;;11.73;;
7997;SDS011;4044;49.814;7.828;2024-01-10T12:33:55;19.53;;;11.70;;
7997;SDS011;4044;49.814;7.828;2024-01-10T12:36:21;17.47;;;11.03;;
7997;SDS011;4044;49.814;7.828;2024-01-10T12:38:47;17.67;;;12.23;;
7997;SDS011;4044;49.814;7.828;2024-01-10T12:41:16;20.00;;;13.47;;
7997;SDS011;4044;49.814;7.828;2024-01-10T12:43:43;18.00;;;12.33;;
7997;SDS011;4044;49.814;7.828;2024-01-10T12:46:13;14.43;;;11.10;;
7997;SDS011;4044;49.814;7.828;2024-01-10T12:48:39;15.40;;;11.70;;
7997;SDS011;4044;49.814;7.828;2024-01-10T12:51:09;16.00;;;11.80;;
7997;SDS011;4044;49.814;7.828;2024-01-10T12:56:04;16.03;;;12.10;;
7997;SDS011;4044;49.814;7.828;2024-01-10T12:58:31;17.40;;;12.47;;
7997;SDS011;4044;49.814;7.828;2024-01-10T13:00:57;18.20;;;12.87;;
7997;SDS011;4044;49.814;7.828;2024-01-10T13:03:23;16.43;;;12.70;;
7997;SDS011;4044;49.814;7.828;2024-01-10T13:05:49;16.23;;;12.00;;
7997;SDS011;4044;49.814;7.828;2024-01-10T13:08:15;18.10;;;12.50;;
7997;SDS011;4044;49.814;7.828;2024-01-10T13:10:41;17.20;;;12.60;;
7997;SDS011;4044;49.814;7.828;2024-01-10T13:13:07;16.33;;;12.33;;
7997;SDS011;4044;49.814;7.828;2024-01-10T13:15:33;20.60;;;12.30;;
7997;SDS011;4044;49.814;7.828;2024-01-10T13:17:59;18.13;;;13.10;;
7997;SDS011;4044;49.814;7.828;2024-01-10T13:20:24;16.07;;;12.73;;
7997;SDS011;4044;49.814;7.828;2024-01-10T13:22:50;18.67;;;12.83;;
7997;SDS011;4044;49.814;7.828;2024-01-10T13:25:16;20.07;;;13.30;;
7997;SDS011;4044;49.814;7.828;2024-01-10T13:27:42;15.60;;;12.83;;
7997;SDS011;4044;49.814;7.828;2024-01-10T13:30:08;17.43;;;13.17;;
7997;SDS011;4044;49.814;7.828;2024-01-10T13:32:37;17.10;;;12.73;;
7997;SDS011;4044;49.814;7.828;2024-01-10T13:35:03;17.10;;;12.70;;
7997;SDS011;4044;49.814;7.828;2024-01-10T13:37:29;18.73;;;13.40;;
7997;SDS011;4044;49.814;7.828;2024-01-10T13:39:56;16.60;;;13.10;;
7997;SDS011;4044;49.814;7.828;2024-01-10T13:42:22;18.07;;;12.73;;
7997;SDS011;4044;49.814;7.828;2024-01-10T13:44:48;17.83;;;12.67;;
7997;SDS011;4044;49.814;7.828;2024-01-10T13:47:14;17.37;;;12.57;;
7997;SDS011;4044;49.814;7.828;2024-01-10T13:49:39;17.57;;;13.37;;
7997;SDS011;4044;49.814;7.828;2024-01-10T13:52:06;17.10;;;13.00;;
7997;SDS011;4044;49.814;7.828;2024-01-10T13:54:32;18.13;;;13.00;;
7997;SDS011;4044;49.814;7.828;2024-01-10T13:56:57;18.33;;;12.97;;
7997;SDS011;4044;49.814;7.828;2024-01-10T13:59:23;16.17;;;12.43;;
7997;SDS011;4044;49.814;7.828;2024-01-10T14:01:48;20.10;;;13.33;;
7997;SDS011;4044;49.814;7.828;2024-01-10T14:04:14;16.07;;;11.87;;
7997;SDS011;4044;49.814;7.828;2024-01-10T14:06:40;17.40;;;12.13;;
7997;SDS011;4044;49.814;7.828;2024-01-10T14:09:05;18.33;;;12.13;;
7997;SDS011;4044;49.814;7.828;2024-01-10T14:11:32;18.57;;;12.80;;
7997;SDS011;4044;49.814;7.828;2024-01-10T14:13:59;16.43;;;12.40;;
7997;SDS011;4044;49.814;7.828;2024-01-10T14:16:26;14.83;;;11.27;;
7997;SDS011;4044;49.814;7.828;2024-01-10T14:18:52;16.77;;;11.50;;
7997;SDS011;4044;49.814;7.828;2024-01-10T14:21:20;15.40;;;11.20;;
7997;SDS011;4044;49.814;7.828;2024-01-10T14:23:46;15.73;;;11.43;;
7997;SDS011;4044;49.814;7.828;2024-01-10T14:26:12;17.97;;;11.53;;
7997;SDS011;4044;49.814;7.828;2024-01-10T14:28:38;16.90;;;12.60;;
7997;SDS011;4044;49.814;7.828;2024-01-10T14:31:04;17.17;;;12.33;;
7997;SDS011;4044;49.814;7.828;2024-01-10T14:33:30;19.93;;;12.30;;
7997;SDS011;4044;49.814;7.828;2024-01-10T14:35:55;18.73;;;12.50;;
7997;SDS011;4044;49.814;7.828;2024-01-10T14:38:21;17.13;;;11.73;;
7997;SDS011;4044;49.814;7.828;2024-01-10T14:40:47;18.53;;;12.57;;
7997;SDS011;4044;49.814;7.828;2024-01-10T14:43:12;17.90;;;13.07;;
7997;SDS011;4044;49.814;7.828;2024-01-10T14:45:38;17.13;;;11.60;;
7997;SDS011;4044;49.814;7.828;2024-01-10T14:48:04;20.57;;;12.27;;
7997;SDS011;4044;49.814;7.828;2024-01-10T14:50:29;18.17;;;11.87;;
7997;SDS011;4044;49.814;7.828;2024-01-10T14:52:55;18.37;;;11.23;;
7997;SDS011;4044;49.814;7.828;2024-01-10T14:55:22;21.07;;;12.43;;
7997;SDS011;4044;49.814;7.828;2024-01-10T14:57:48;17.30;;;12.43;;
7997;SDS011;4044;49.814;7.828;2024-01-10T15:00:14;17.47;;;11.47;;